sensor_id;sensor_type;location;lat;lon;timestamp;temperature;humidity
1355;DHT22;671;48.972;9.276;2023-07-29T00:01:25;18.70;99.90
1355;DHT22;671;48.972;9.276;2023-07-29T00:03:51;18.70;99.90
1355;DHT22;671;48.972;9.276;2023-07-29T00:06:18;18.80;99.90
1355;DHT22;671;48.972;9.276;2023-07-29T00:08:44;18.70;99.90
1355;DHT22;671;48.972;9.276;2023-07-29T00:11:11;18.80;99.90
1355;DHT22;671;48.972;9.276;2023-07-29T00:13:37;18.80;99.90
1355;DHT22;671;48.972;9.276;2023-07-29T00:16:04;18.90;99.90
1355;DHT22;671;48.972;9.276;2023-07-29T00:18:30;18.90;99.90
1355;DHT22;671;48.972;9.276;2023-07-29T00:20:57;18.90;99.90
1355;DHT22;671;48.972;9.276;2023-07-29T00:23:24;19.00;99.90
1355;DHT22;671;48.972;9.276;2023-07-29T00:25:50;18.90;99.90
1355;DHT22;671;48.972;9.276;2023-07-29T00:28:17;19.00;99.90
1355;DHT22;671;48.972;9.276;2023-07-29T00:30:43;19.00;99.90
1355;DHT22;671;48.972;9.276;2023-07-29T00:33:10;19.00;99.90
1355;DHT22;671;48.972;9.276;2023-07-29T00:35:36;19.00;99.90
1355;DHT22;671;48.972;9.276;2023-07-29T00:38:03;19.00;99.90
1355;DHT22;671;48.972;9.276;2023-07-29T00:40:29;19.00;99.90
1355;DHT22;671;48.972;9.276;2023-07-29T00:42:57;19.00;99.90
1355;DHT22;671;48.972;9.276;2023-07-29T00:45:25;19.00;99.90
1355;DHT22;671;48.972;9.276;2023-07-29T00:47:52;19.00;99.90
1355;DHT22;671;48.972;9.276;2023-07-29T00:50:18;19.00;99.90
1355;DHT22;671;48.972;9.276;2023-07-29T00:52:45;19.10;99.90
1355;DHT22;671;48.972;9.276;2023-07-29T00:55:12;19.10;99.90
1355;DHT22;671;48.972;9.276;2023-07-29T00:57:39;19.10;99.90
1355;DHT22;671;48.972;9.276;2023-07-29T01:00:06;19.10;99.90
1355;DHT22;671;48.972;9.276;2023-07-29T01:02:35;19.10;99.90
1355;DHT22;671;48.972;9.276;2023-07-29T01:05:02;19.10;99.90
1355;DHT22;671;48.972;9.276;2023-07-29T01:18:21;19.00;99.90
1355;DHT22;671;48.972;9.276;2023-07-29T01:20:53;19.00;99.90
1355;DHT22;671;48.972;9.276;2023-07-29T01:23:24;19.00;99.90
1355;DHT22;671;48.972;9.276;2023-07-29T01:25:51;19.00;99.90
1355;DHT22;671;48.972;9.276;2023-07-29T01:28:17;19.00;99.90
1355;DHT22;671;48.972;9.276;2023-07-29T01:30:44;19.00;99.90
1355;DHT22;671;48.972;9.276;2023-07-29T01:33:22;19.00;99.90
1355;DHT22;671;48.972;9.276;2023-07-29T01:35:54;19.00;99.90
1355;DHT22;671;48.972;9.276;2023-07-29T01:38:35;19.00;99.90
1355;DHT22;671;48.972;9.276;2023-07-29T01:41:04;19.00;99.90
1355;DHT22;671;48.972;9.276;2023-07-29T01:43:32;19.00;99.90
1355;DHT22;671;48.972;9.276;2023-07-29T01:46:00;18.90;99.90
1355;DHT22;671;48.972;9.276;2023-07-29T01:48:27;19.00;99.90
1355;DHT22;671;48.972;9.276;2023-07-29T01:50:56;18.90;99.90
1355;DHT22;671;48.972;9.276;2023-07-29T01:53:23;18.90;99.90
1355;DHT22;671;48.972;9.276;2023-07-29T01:55:49;19.00;99.90
1355;DHT22;671;48.972;9.276;2023-07-29T01:58:16;18.90;99.90
1355;DHT22;671;48.972;9.276;2023-07-29T02:00:43;18.90;99.90
1355;DHT22;671;48.972;9.276;2023-07-29T02:03:09;18.90;99.90
1355;DHT22;671;48.972;9.276;2023-07-29T02:05:35;18.90;99.90
1355;DHT22;671;48.972;9.276;2023-07-29T02:08:02;18.90;99.90
1355;DHT22;671;48.972;9.276;2023-07-29T02:10:28;18.90;99.90
1355;DHT22;671;48.972;9.276;2023-07-29T02:12:55;18.90;99.90
1355;DHT22;671;48.972;9.276;2023-07-29T02:15:21;18.90;99.90
1355;DHT22;671;48.972;9.276;2023-07-29T02:17:50;18.90;99.90
1355;DHT22;671;48.972;9.276;2023-07-29T02:20:17;18.90;99.90
1355;DHT22;671;48.972;9.276;2023-07-29T02:22:43;18.90;99.90
1355;DHT22;671;48.972;9.276;2023-07-29T02:25:10;18.90;99.90
1355;DHT22;671;48.972;9.276;2023-07-29T02:27:36;18.90;99.90
1355;DHT22;671;48.972;9.276;2023-07-29T02:30:03;18.90;99.90
1355;DHT22;671;48.972;9.276;2023-07-29T02:32:30;18.80;99.90
1355;DHT22;671;48.972;9.276;2023-07-29T02:34:56;18.80;99.90
1355;DHT22;671;48.972;9.276;2023-07-29T02:37:23;18.80;99.90
1355;DHT22;671;48.972;9.276;2023-07-29T02:39:49;18.70;99.90
1355;DHT22;671;48.972;9.276;2023-07-29T02:42:16;18.70;99.90
1355;DHT22;671;48.972;9.276;2023-07-29T02:44:42;18.70;99.90
1355;DHT22;671;48.972;9.276;2023-07-29T02:47:09;18.70;99.90
1355;DHT22;671;48.972;9.276;2023-07-29T02:49:35;18.70;99.90
1355;DHT22;671;48.972;9.276;2023-07-29T02:52:02;18.70;99.90
1355;DHT22;671;48.972;9.276;2023-07-29T02:54:28;18.70;99.90
1355;DHT22;671;48.972;9.276;2023-07-29T02:56:55;18.80;99.90
1355;DHT22;671;48.972;9.276;2023-07-29T02:59:21;18.80;99.90
1355;DHT22;671;48.972;9.276;2023-07-29T03:01:48;18.80;99.90
1355;DHT22;671;48.972;9.276;2023-07-29T03:04:14;18.80;99.90
1355;DHT22;671;48.972;9.276;2023-07-29T03:06:41;18.80;99.90
1355;DHT22;671;48.972;9.276;2023-07-29T03:09:08;18.90;99.90
1355;DHT22;671;48.972;9.276;2023-07-29T03:11:34;18.80;99.90
1355;DHT22;671;48.972;9.276;2023-07-29T03:14:01;18.80;99.90
1355;DHT22;671;48.972;9.276;2023-07-29T03:16:28;18.80;99.90
1355;DHT22;671;48.972;9.276;2023-07-29T03:18:54;18.70;99.90
1355;DHT22;671;48.972;9.276;2023-07-29T03:21:21;18.70;99.90
1355;DHT22;671;48.972;9.276;2023-07-29T03:23:47;18.60;99.90
1355;DHT22;671;48.972;9.276;2023-07-29T03:26:14;18.60;99.90
1355;DHT22;671;48.972;9.276;2023-07-29T03:28:41;18.50;99.90
1355;DHT22;671;48.972;9.276;2023-07-29T03:31:09;18.50;99.90
1355;DHT22;671;48.972;9.276;2023-07-29T03:33:35;18.50;99.90
1355;DHT22;671;48.972;9.276;2023-07-29T03:36:02;18.50;99.90
1355;DHT22;671;48.972;9.276;2023-07-29T03:38:28;18.50;99.90
1355;DHT22;671;48.972;9.276;2023-07-29T03:40:55;18.50;99.90
1355;DHT22;671;48.972;9.276;2023-07-29T03:43:22;18.50;99.90
1355;DHT22;671;48.972;9.276;2023-07-29T03:45:48;18.50;99.90
1355;DHT22;671;48.972;9.276;2023-07-29T03:48:15;18.60;99.90
1355;DHT22;671;48.972;9.276;2023-07-29T03:50:41;18.60;99.90
1355;DHT22;671;48.972;9.276;2023-07-29T03:53:08;18.60;99.90
1355;DHT22;671;48.972;9.276;2023-07-29T03:55:36;18.60;99.90
1355;DHT22;671;48.972;9.276;2023-07-29T03:58:02;18.60;99.90
1355;DHT22;671;48.972;9.276;2023-07-29T04:00:29;18.70;99.90
1355;DHT22;671;48.972;9.276;2023-07-29T04:02:55;18.70;99.90
1355;DHT22;671;48.972;9.276;2023-07-29T04:05:22;18.70;99.90
1355;DHT22;671;48.972;9.276;2023-07-29T04:07:48;18.70;99.90
1355;DHT22;671;48.972;9.276;2023-07-29T04:10:15;18.80;99.90
1355;DHT22;671;48.972;9.276;2023-07-29T04:12:42;18.80;99.90
1355;DHT22;671;48.972;9.276;2023-07-29T04:15:09;18.80;99.90
1355;DHT22;671;48.972;9.276;2023-07-29T04:17:35;18.90;99.90
1355;DHT22;671;48.972;9.276;2023-07-29T04:20:03;18.80;99.90
1355;DHT22;671;48.972;9.276;2023-07-29T04:22:29;18.80;99.90
1355;DHT22;671;48.972;9.276;2023-07-29T04:24:56;18.80;99.90
1355;DHT22;671;48.972;9.276;2023-07-29T04:27:22;18.90;99.90
1355;DHT22;671;48.972;9.276;2023-07-29T04:29:49;18.80;99.90
1355;DHT22;671;48.972;9.276;2023-07-29T04:32:15;18.80;99.90
1355;DHT22;671;48.972;9.276;2023-07-29T04:34:41;18.80;99.90
1355;DHT22;671;48.972;9.276;2023-07-29T04:37:08;18.80;99.90
1355;DHT22;671;48.972;9.276;2023-07-29T04:39:34;18.80;99.90
1355;DHT22;671;48.972;9.276;2023-07-29T04:42:01;18.80;99.90
1355;DHT22;671;48.972;9.276;2023-07-29T04:44:28;18.80;99.90
1355;DHT22;671;48.972;9.276;2023-07-29T04:46:54;18.90;99.90
1355;DHT22;671;48.972;9.276;2023-07-29T04:49:21;18.90;99.90
1355;DHT22;671;48.972;9.276;2023-07-29T04:51:46;18.90;99.90
1355;DHT22;671;48.972;9.276;2023-07-29T04:54:12;18.90;99.90
1355;DHT22;671;48.972;9.276;2023-07-29T04:56:38;18.90;99.90
1355;DHT22;671;48.972;9.276;2023-07-29T04:59:03;18.90;99.90
1355;DHT22;671;48.972;9.276;2023-07-29T05:01:30;18.90;99.90
1355;DHT22;671;48.972;9.276;2023-07-29T05:03:57;18.90;99.90
1355;DHT22;671;48.972;9.276;2023-07-29T05:06:23;18.90;99.90
1355;DHT22;671;48.972;9.276;2023-07-29T05:08:50;18.90;99.90
1355;DHT22;671;48.972;9.276;2023-07-29T05:11:16;18.90;99.90
1355;DHT22;671;48.972;9.276;2023-07-29T05:13:43;18.90;99.90
1355;DHT22;671;48.972;9.276;2023-07-29T05:16:10;18.90;99.90
1355;DHT22;671;48.972;9.276;2023-07-29T05:18:36;18.90;99.90
1355;DHT22;671;48.972;9.276;2023-07-29T05:21:03;18.90;99.90
1355;DHT22;671;48.972;9.276;2023-07-29T05:23:29;19.00;99.90
1355;DHT22;671;48.972;9.276;2023-07-29T05:25:56;19.00;99.90
1355;DHT22;671;48.972;9.276;2023-07-29T05:28:22;19.10;99.90
1355;DHT22;671;48.972;9.276;2023-07-29T05:30:49;19.20;99.90
1355;DHT22;671;48.972;9.276;2023-07-29T05:33:15;19.30;99.90
1355;DHT22;671;48.972;9.276;2023-07-29T05:35:42;19.50;99.90
1355;DHT22;671;48.972;9.276;2023-07-29T05:38:08;19.60;99.90
1355;DHT22;671;48.972;9.276;2023-07-29T05:40:35;19.60;99.90
1355;DHT22;671;48.972;9.276;2023-07-29T05:43:02;19.70;99.90
1355;DHT22;671;48.972;9.276;2023-07-29T05:45:29;19.70;99.90
1355;DHT22;671;48.972;9.276;2023-07-29T05:47:57;19.80;99.90
1355;DHT22;671;48.972;9.276;2023-07-29T05:50:23;19.80;99.90
1355;DHT22;671;48.972;9.276;2023-07-29T05:52:50;19.80;99.90
1355;DHT22;671;48.972;9.276;2023-07-29T05:55:16;19.80;99.90
1355;DHT22;671;48.972;9.276;2023-07-29T05:57:43;19.80;99.90
1355;DHT22;671;48.972;9.276;2023-07-29T06:00:10;19.80;99.90
1355;DHT22;671;48.972;9.276;2023-07-29T06:02:37;19.90;99.90
1355;DHT22;671;48.972;9.276;2023-07-29T06:05:03;19.90;99.90
1355;DHT22;671;48.972;9.276;2023-07-29T06:07:30;20.00;99.90
1355;DHT22;671;48.972;9.276;2023-07-29T06:09:58;20.00;99.90
1355;DHT22;671;48.972;9.276;2023-07-29T06:12:24;20.20;99.90
1355;DHT22;671;48.972;9.276;2023-07-29T06:14:52;20.40;99.90
1355;DHT22;671;48.972;9.276;2023-07-29T06:17:18;20.60;99.90
1355;DHT22;671;48.972;9.276;2023-07-29T06:19:45;20.70;99.90
1355;DHT22;671;48.972;9.276;2023-07-29T06:22:11;20.90;99.90
1355;DHT22;671;48.972;9.276;2023-07-29T06:24:38;21.00;99.90
1355;DHT22;671;48.972;9.276;2023-07-29T06:27:04;21.10;99.90
1355;DHT22;671;48.972;9.276;2023-07-29T06:29:31;21.20;99.90
1355;DHT22;671;48.972;9.276;2023-07-29T06:31:58;21.30;99.90
1355;DHT22;671;48.972;9.276;2023-07-29T06:34:25;21.40;99.90
1355;DHT22;671;48.972;9.276;2023-07-29T06:36:51;21.50;99.90
1355;DHT22;671;48.972;9.276;2023-07-29T06:39:18;21.50;99.90
1355;DHT22;671;48.972;9.276;2023-07-29T06:41:44;21.60;99.90
1355;DHT22;671;48.972;9.276;2023-07-29T06:44:11;21.60;99.90
1355;DHT22;671;48.972;9.276;2023-07-29T06:46:36;21.50;99.90
1355;DHT22;671;48.972;9.276;2023-07-29T06:49:02;21.50;99.90
1355;DHT22;671;48.972;9.276;2023-07-29T06:51:28;21.50;99.90
1355;DHT22;671;48.972;9.276;2023-07-29T06:53:58;21.50;99.90
1355;DHT22;671;48.972;9.276;2023-07-29T06:56:24;21.50;99.90
1355;DHT22;671;48.972;9.276;2023-07-29T06:58:51;21.50;99.90
1355;DHT22;671;48.972;9.276;2023-07-29T07:01:17;21.50;99.90
1355;DHT22;671;48.972;9.276;2023-07-29T07:03:43;21.40;99.90
1355;DHT22;671;48.972;9.276;2023-07-29T07:06:10;21.40;99.90
1355;DHT22;671;48.972;9.276;2023-07-29T07:08:37;21.50;99.90
1355;DHT22;671;48.972;9.276;2023-07-29T07:11:03;21.50;99.90
1355;DHT22;671;48.972;9.276;2023-07-29T07:13:29;21.50;99.90
1355;DHT22;671;48.972;9.276;2023-07-29T07:15:56;21.40;99.90
1355;DHT22;671;48.972;9.276;2023-07-29T07:18:23;21.40;99.90
1355;DHT22;671;48.972;9.276;2023-07-29T07:20:50;21.30;99.90
1355;DHT22;671;48.972;9.276;2023-07-29T07:23:18;21.30;99.90
1355;DHT22;671;48.972;9.276;2023-07-29T07:25:44;21.40;99.90
1355;DHT22;671;48.972;9.276;2023-07-29T07:28:11;21.40;99.90
1355;DHT22;671;48.972;9.276;2023-07-29T07:30:41;21.40;99.90
1355;DHT22;671;48.972;9.276;2023-07-29T07:33:08;21.30;99.90
1355;DHT22;671;48.972;9.276;2023-07-29T07:35:34;21.30;99.90
1355;DHT22;671;48.972;9.276;2023-07-29T07:38:01;21.20;99.90
1355;DHT22;671;48.972;9.276;2023-07-29T07:40:31;21.20;99.90
1355;DHT22;671;48.972;9.276;2023-07-29T07:42:57;21.30;99.90
1355;DHT22;671;48.972;9.276;2023-07-29T07:45:24;21.40;99.90
1355;DHT22;671;48.972;9.276;2023-07-29T07:47:52;21.40;99.90
1355;DHT22;671;48.972;9.276;2023-07-29T07:50:20;21.40;99.90
1355;DHT22;671;48.972;9.276;2023-07-29T07:52:46;21.40;99.90
1355;DHT22;671;48.972;9.276;2023-07-29T07:55:13;21.40;99.90
1355;DHT22;671;48.972;9.276;2023-07-29T07:57:39;21.40;99.90
1355;DHT22;671;48.972;9.276;2023-07-29T08:00:06;21.60;99.90
1355;DHT22;671;48.972;9.276;2023-07-29T08:02:33;21.80;99.90
1355;DHT22;671;48.972;9.276;2023-07-29T08:04:59;22.00;99.90
1355;DHT22;671;48.972;9.276;2023-07-29T08:07:26;22.20;99.90
1355;DHT22;671;48.972;9.276;2023-07-29T08:09:52;22.50;99.90
1355;DHT22;671;48.972;9.276;2023-07-29T08:12:19;22.80;99.90
1355;DHT22;671;48.972;9.276;2023-07-29T08:14:45;23.10;99.90
1355;DHT22;671;48.972;9.276;2023-07-29T08:17:12;23.40;99.90
1355;DHT22;671;48.972;9.276;2023-07-29T08:19:38;23.70;99.90
1355;DHT22;671;48.972;9.276;2023-07-29T08:22:05;23.90;99.90
1355;DHT22;671;48.972;9.276;2023-07-29T08:24:31;24.10;99.90
1355;DHT22;671;48.972;9.276;2023-07-29T08:26:58;24.20;99.90
1355;DHT22;671;48.972;9.276;2023-07-29T08:29:25;24.40;99.90
1355;DHT22;671;48.972;9.276;2023-07-29T08:31:51;24.60;99.90
1355;DHT22;671;48.972;9.276;2023-07-29T08:34:18;24.70;99.90
1355;DHT22;671;48.972;9.276;2023-07-29T08:36:44;24.80;99.90
1355;DHT22;671;48.972;9.276;2023-07-29T08:39:11;24.40;99.90
1355;DHT22;671;48.972;9.276;2023-07-29T08:41:45;24.10;99.90
1355;DHT22;671;48.972;9.276;2023-07-29T08:44:21;24.00;99.90
1355;DHT22;671;48.972;9.276;2023-07-29T08:46:51;23.80;99.90
1355;DHT22;671;48.972;9.276;2023-07-29T08:49:19;23.80;99.90
1355;DHT22;671;48.972;9.276;2023-07-29T08:51:47;23.70;99.90
1355;DHT22;671;48.972;9.276;2023-07-29T08:54:14;23.90;99.90
1355;DHT22;671;48.972;9.276;2023-07-29T08:56:42;24.10;99.90
1355;DHT22;671;48.972;9.276;2023-07-29T08:59:10;24.40;99.90
1355;DHT22;671;48.972;9.276;2023-07-29T09:01:41;24.60;99.90
1355;DHT22;671;48.972;9.276;2023-07-29T09:04:08;24.80;99.90
1355;DHT22;671;48.972;9.276;2023-07-29T09:06:35;25.10;99.90
1355;DHT22;671;48.972;9.276;2023-07-29T09:09:02;25.40;99.90
1355;DHT22;671;48.972;9.276;2023-07-29T09:11:29;25.70;99.90
1355;DHT22;671;48.972;9.276;2023-07-29T09:13:57;25.90;99.90
1355;DHT22;671;48.972;9.276;2023-07-29T09:16:24;26.10;99.90
1355;DHT22;671;48.972;9.276;2023-07-29T09:18:51;26.40;99.90
1355;DHT22;671;48.972;9.276;2023-07-29T09:21:23;26.40;99.90
1355;DHT22;671;48.972;9.276;2023-07-29T09:23:51;26.30;99.90
1355;DHT22;671;48.972;9.276;2023-07-29T09:26:28;26.20;99.90
1355;DHT22;671;48.972;9.276;2023-07-29T09:28:55;26.40;99.90
1355;DHT22;671;48.972;9.276;2023-07-29T09:31:24;26.30;99.90
1355;DHT22;671;48.972;9.276;2023-07-29T09:34:01;26.40;99.90
1355;DHT22;671;48.972;9.276;2023-07-29T09:36:31;26.40;99.90
1355;DHT22;671;48.972;9.276;2023-07-29T09:38:58;26.40;99.90
1355;DHT22;671;48.972;9.276;2023-07-29T09:41:28;26.30;99.90
1355;DHT22;671;48.972;9.276;2023-07-29T09:43:57;26.20;99.90
1355;DHT22;671;48.972;9.276;2023-07-29T09:46:25;26.10;99.90
1355;DHT22;671;48.972;9.276;2023-07-29T09:48:58;26.10;99.90
1355;DHT22;671;48.972;9.276;2023-07-29T09:51:25;25.90;99.90
1355;DHT22;671;48.972;9.276;2023-07-29T09:53:51;25.70;99.90
1355;DHT22;671;48.972;9.276;2023-07-29T09:56:26;25.40;99.90
1355;DHT22;671;48.972;9.276;2023-07-29T09:58:55;24.90;99.90
1355;DHT22;671;48.972;9.276;2023-07-29T10:01:23;24.50;99.90
1355;DHT22;671;48.972;9.276;2023-07-29T10:03:50;23.80;99.90
1355;DHT22;671;48.972;9.276;2023-07-29T10:06:17;23.20;99.90
1355;DHT22;671;48.972;9.276;2023-07-29T10:08:45;22.90;99.90
1355;DHT22;671;48.972;9.276;2023-07-29T10:11:11;22.70;99.90
1355;DHT22;671;48.972;9.276;2023-07-29T10:13:38;22.60;99.90
1355;DHT22;671;48.972;9.276;2023-07-29T10:16:05;22.50;99.90
1355;DHT22;671;48.972;9.276;2023-07-29T10:18:33;22.40;99.90
1355;DHT22;671;48.972;9.276;2023-07-29T10:21:01;22.40;99.90
1355;DHT22;671;48.972;9.276;2023-07-29T10:23:31;22.40;99.90
1355;DHT22;671;48.972;9.276;2023-07-29T10:26:05;22.50;99.90
1355;DHT22;671;48.972;9.276;2023-07-29T10:28:32;22.70;99.90
1355;DHT22;671;48.972;9.276;2023-07-29T10:30:59;22.80;99.90
1355;DHT22;671;48.972;9.276;2023-07-29T10:33:26;22.90;99.90
1355;DHT22;671;48.972;9.276;2023-07-29T10:35:53;23.10;99.90
1355;DHT22;671;48.972;9.276;2023-07-29T10:38:22;23.30;99.90
1355;DHT22;671;48.972;9.276;2023-07-29T10:40:55;23.50;99.90
1355;DHT22;671;48.972;9.276;2023-07-29T10:43:27;23.70;99.90
1355;DHT22;671;48.972;9.276;2023-07-29T10:46:17;23.80;99.90
1355;DHT22;671;48.972;9.276;2023-07-29T10:48:55;23.80;99.90
1355;DHT22;671;48.972;9.276;2023-07-29T10:54:09;24.20;99.90
1355;DHT22;671;48.972;9.276;2023-07-29T10:56:41;24.30;99.90
1355;DHT22;671;48.972;9.276;2023-07-29T11:01:51;24.70;99.90
1355;DHT22;671;48.972;9.276;2023-07-29T11:17:50;25.30;99.90
1355;DHT22;671;48.972;9.276;2023-07-29T11:20:19;25.40;99.90
1355;DHT22;671;48.972;9.276;2023-07-29T11:22:46;25.60;99.90
1355;DHT22;671;48.972;9.276;2023-07-29T11:25:14;25.60;99.90
1355;DHT22;671;48.972;9.276;2023-07-29T11:27:41;25.50;99.90
1355;DHT22;671;48.972;9.276;2023-07-29T11:30:10;25.40;99.90
1355;DHT22;671;48.972;9.276;2023-07-29T11:32:39;25.30;99.90
1355;DHT22;671;48.972;9.276;2023-07-29T11:35:15;25.40;99.90
1355;DHT22;671;48.972;9.276;2023-07-29T11:37:46;25.50;99.90
1355;DHT22;671;48.972;9.276;2023-07-29T11:40:20;25.60;99.90
1355;DHT22;671;48.972;9.276;2023-07-29T11:42:48;25.70;99.90
1355;DHT22;671;48.972;9.276;2023-07-29T11:45:19;25.70;99.90
1355;DHT22;671;48.972;9.276;2023-07-29T11:47:46;25.70;99.90
1355;DHT22;671;48.972;9.276;2023-07-29T11:50:14;25.60;99.90
1355;DHT22;671;48.972;9.276;2023-07-29T11:52:42;25.70;99.90
1355;DHT22;671;48.972;9.276;2023-07-29T11:55:09;25.80;99.90
1355;DHT22;671;48.972;9.276;2023-07-29T11:57:37;25.90;99.90
1355;DHT22;671;48.972;9.276;2023-07-29T12:00:06;25.90;99.90
1355;DHT22;671;48.972;9.276;2023-07-29T12:02:37;25.80;99.90
1355;DHT22;671;48.972;9.276;2023-07-29T12:05:05;25.90;99.90
1355;DHT22;671;48.972;9.276;2023-07-29T12:07:33;25.90;99.90
1355;DHT22;671;48.972;9.276;2023-07-29T12:10:00;25.90;99.90
1355;DHT22;671;48.972;9.276;2023-07-29T12:12:26;25.90;99.90
1355;DHT22;671;48.972;9.276;2023-07-29T12:14:54;26.00;99.90
1355;DHT22;671;48.972;9.276;2023-07-29T12:17:21;26.20;99.90
1355;DHT22;671;48.972;9.276;2023-07-29T12:19:48;26.20;99.90
1355;DHT22;671;48.972;9.276;2023-07-29T12:22:18;26.20;99.90
1355;DHT22;671;48.972;9.276;2023-07-29T12:24:45;26.20;99.90
1355;DHT22;671;48.972;9.276;2023-07-29T12:27:13;26.30;99.90
1355;DHT22;671;48.972;9.276;2023-07-29T12:29:41;26.20;99.90
1355;DHT22;671;48.972;9.276;2023-07-29T12:32:09;26.10;99.90
1355;DHT22;671;48.972;9.276;2023-07-29T12:34:38;25.90;99.90
1355;DHT22;671;48.972;9.276;2023-07-29T12:37:06;25.90;99.90
1355;DHT22;671;48.972;9.276;2023-07-29T12:39:35;25.90;99.90
1355;DHT22;671;48.972;9.276;2023-07-29T12:42:03;25.80;99.90
1355;DHT22;671;48.972;9.276;2023-07-29T12:44:32;25.80;99.90
1355;DHT22;671;48.972;9.276;2023-07-29T12:47:04;25.80;99.90
1355;DHT22;671;48.972;9.276;2023-07-29T12:49:31;25.70;99.90
1355;DHT22;671;48.972;9.276;2023-07-29T12:51:58;25.60;99.90
1355;DHT22;671;48.972;9.276;2023-07-29T12:54:25;25.60;99.90
1355;DHT22;671;48.972;9.276;2023-07-29T12:56:52;25.60;99.90
1355;DHT22;671;48.972;9.276;2023-07-29T12:59:19;25.70;99.90
1355;DHT22;671;48.972;9.276;2023-07-29T13:01:45;25.70;99.90
1355;DHT22;671;48.972;9.276;2023-07-29T13:04:12;25.70;99.90
1355;DHT22;671;48.972;9.276;2023-07-29T13:06:39;25.80;99.90
1355;DHT22;671;48.972;9.276;2023-07-29T13:09:05;25.90;99.90
1355;DHT22;671;48.972;9.276;2023-07-29T13:11:32;26.00;99.90
1355;DHT22;671;48.972;9.276;2023-07-29T13:13:59;26.20;99.90
1355;DHT22;671;48.972;9.276;2023-07-29T13:16:27;26.30;99.90
1355;DHT22;671;48.972;9.276;2023-07-29T13:18:54;26.50;99.90
1355;DHT22;671;48.972;9.276;2023-07-29T13:21:22;26.50;99.90
1355;DHT22;671;48.972;9.276;2023-07-29T13:23:48;26.50;99.90
1355;DHT22;671;48.972;9.276;2023-07-29T13:26:15;26.40;99.90
1355;DHT22;671;48.972;9.276;2023-07-29T13:28:41;26.30;99.90
1355;DHT22;671;48.972;9.276;2023-07-29T13:31:08;26.20;99.90
1355;DHT22;671;48.972;9.276;2023-07-29T13:33:34;26.30;99.90
1355;DHT22;671;48.972;9.276;2023-07-29T13:36:01;26.40;99.90
1355;DHT22;671;48.972;9.276;2023-07-29T13:38:30;26.60;99.90
1355;DHT22;671;48.972;9.276;2023-07-29T13:40:57;26.70;99.90
1355;DHT22;671;48.972;9.276;2023-07-29T13:43:23;26.70;99.90
1355;DHT22;671;48.972;9.276;2023-07-29T13:45:50;26.70;99.90
1355;DHT22;671;48.972;9.276;2023-07-29T13:48:17;26.70;99.90
1355;DHT22;671;48.972;9.276;2023-07-29T13:50:44;26.70;99.90
1355;DHT22;671;48.972;9.276;2023-07-29T13:53:11;26.70;99.90
1355;DHT22;671;48.972;9.276;2023-07-29T13:55:37;26.80;99.90
1355;DHT22;671;48.972;9.276;2023-07-29T13:58:04;26.70;99.90
1355;DHT22;671;48.972;9.276;2023-07-29T14:00:30;26.70;99.90
1355;DHT22;671;48.972;9.276;2023-07-29T14:02:57;26.70;99.90
1355;DHT22;671;48.972;9.276;2023-07-29T14:05:23;26.80;99.90
1355;DHT22;671;48.972;9.276;2023-07-29T14:07:50;26.90;99.90
1355;DHT22;671;48.972;9.276;2023-07-29T14:10:16;27.00;99.90
1355;DHT22;671;48.972;9.276;2023-07-29T14:12:43;27.10;99.90
1355;DHT22;671;48.972;9.276;2023-07-29T14:15:09;27.30;99.90
1355;DHT22;671;48.972;9.276;2023-07-29T14:17:36;27.40;99.90
1355;DHT22;671;48.972;9.276;2023-07-29T14:20:02;27.50;99.90
1355;DHT22;671;48.972;9.276;2023-07-29T14:22:31;27.60;99.90
1355;DHT22;671;48.972;9.276;2023-07-29T14:24:57;27.60;99.90
1355;DHT22;671;48.972;9.276;2023-07-29T14:27:24;27.60;99.90
1355;DHT22;671;48.972;9.276;2023-07-29T14:29:50;27.40;99.90
1355;DHT22;671;48.972;9.276;2023-07-29T14:32:17;27.30;99.90
1355;DHT22;671;48.972;9.276;2023-07-29T14:34:43;27.20;99.90
1355;DHT22;671;48.972;9.276;2023-07-29T14:37:10;27.00;99.90
1355;DHT22;671;48.972;9.276;2023-07-29T14:39:36;27.00;99.90
1355;DHT22;671;48.972;9.276;2023-07-29T14:42:03;26.90;99.90
1355;DHT22;671;48.972;9.276;2023-07-29T14:44:30;26.70;99.90
1355;DHT22;671;48.972;9.276;2023-07-29T14:46:56;26.80;99.90
1355;DHT22;671;48.972;9.276;2023-07-29T14:49:23;26.80;99.90
1355;DHT22;671;48.972;9.276;2023-07-29T14:51:49;27.00;99.90
1355;DHT22;671;48.972;9.276;2023-07-29T14:54:16;27.10;99.90
1355;DHT22;671;48.972;9.276;2023-07-29T14:56:42;27.20;99.90
1355;DHT22;671;48.972;9.276;2023-07-29T14:59:09;27.20;99.90
1355;DHT22;671;48.972;9.276;2023-07-29T15:01:35;27.20;99.90
1355;DHT22;671;48.972;9.276;2023-07-29T15:04:02;27.20;99.90
1355;DHT22;671;48.972;9.276;2023-07-29T15:06:28;27.30;99.90
1355;DHT22;671;48.972;9.276;2023-07-29T15:08:55;27.30;99.90
1355;DHT22;671;48.972;9.276;2023-07-29T15:11:21;27.30;99.90
1355;DHT22;671;48.972;9.276;2023-07-29T15:13:48;27.40;99.90
1355;DHT22;671;48.972;9.276;2023-07-29T15:16:14;27.50;99.90
1355;DHT22;671;48.972;9.276;2023-07-29T15:18:41;27.50;99.90
1355;DHT22;671;48.972;9.276;2023-07-29T15:21:07;27.40;99.90
1355;DHT22;671;48.972;9.276;2023-07-29T15:23:35;27.40;99.90
1355;DHT22;671;48.972;9.276;2023-07-29T15:26:02;27.30;99.90
1355;DHT22;671;48.972;9.276;2023-07-29T15:28:28;27.30;99.90
1355;DHT22;671;48.972;9.276;2023-07-29T15:30:55;27.30;99.90
1355;DHT22;671;48.972;9.276;2023-07-29T15:33:21;27.30;99.90
1355;DHT22;671;48.972;9.276;2023-07-29T15:35:48;27.30;99.90
1355;DHT22;671;48.972;9.276;2023-07-29T15:38:15;27.20;99.90
1355;DHT22;671;48.972;9.276;2023-07-29T15:40:41;27.10;99.90
1355;DHT22;671;48.972;9.276;2023-07-29T15:43:08;27.10;99.90
1355;DHT22;671;48.972;9.276;2023-07-29T15:45:34;27.00;99.90
1355;DHT22;671;48.972;9.276;2023-07-29T15:48:01;26.90;99.90
1355;DHT22;671;48.972;9.276;2023-07-29T15:50:28;27.00;99.90
1355;DHT22;671;48.972;9.276;2023-07-29T15:52:55;27.20;99.90
1355;DHT22;671;48.972;9.276;2023-07-29T15:55:22;27.30;99.90
1355;DHT22;671;48.972;9.276;2023-07-29T15:57:50;27.30;99.90
1355;DHT22;671;48.972;9.276;2023-07-29T16:00:16;27.40;99.90
1355;DHT22;671;48.972;9.276;2023-07-29T16:02:43;27.50;99.90
1355;DHT22;671;48.972;9.276;2023-07-29T16:05:09;27.50;99.90
1355;DHT22;671;48.972;9.276;2023-07-29T16:07:36;27.60;99.90
1355;DHT22;671;48.972;9.276;2023-07-29T16:10:03;27.60;99.90
1355;DHT22;671;48.972;9.276;2023-07-29T16:12:29;27.60;99.90
1355;DHT22;671;48.972;9.276;2023-07-29T16:14:56;27.60;99.90
1355;DHT22;671;48.972;9.276;2023-07-29T16:17:22;27.60;99.90
1355;DHT22;671;48.972;9.276;2023-07-29T16:20:00;27.60;99.90
1355;DHT22;671;48.972;9.276;2023-07-29T16:22:27;27.70;99.90
1355;DHT22;671;48.972;9.276;2023-07-29T16:24:53;27.80;99.90
1355;DHT22;671;48.972;9.276;2023-07-29T16:27:20;27.80;99.90
1355;DHT22;671;48.972;9.276;2023-07-29T16:29:46;27.90;99.90
1355;DHT22;671;48.972;9.276;2023-07-29T16:32:15;27.80;99.90
1355;DHT22;671;48.972;9.276;2023-07-29T16:34:42;27.70;99.90
1355;DHT22;671;48.972;9.276;2023-07-29T16:37:08;27.60;99.90
1355;DHT22;671;48.972;9.276;2023-07-29T16:39:35;27.70;99.90
1355;DHT22;671;48.972;9.276;2023-07-29T16:42:02;27.70;99.90
1355;DHT22;671;48.972;9.276;2023-07-29T16:44:28;27.70;99.90
1355;DHT22;671;48.972;9.276;2023-07-29T16:46:55;27.70;99.90